Time;durP1;ratioP1;P1;durP2;ratioP2;P2;SDS_P1;SDS_P2;PMS_P1;PMS_P2;Temp;Humidity;BMP_temperature;BMP_pressure;BME280_temperature;BME280_humidity;BME280_pressure;Samples;Min_cycle;Max_cycle;Signal;HPM_P1;HPM_P2
2021/11/09 00:02:42;;;;;;;;;;;-1.00;99.90;;;;;;8361213;28;19912;-64
2021/11/09 00:06:48;;;;;;;;;;;-0.90;99.90;;;;;;8361385;28;19904;-64
2021/11/09 00:10:49;;;;;;;;;;;-0.90;99.90;;;;;;8361038;28;19905;-64
2021/11/09 00:14:50;;;;;;;;;;;-0.90;99.90;;;;;;8360722;28;19909;-64
2021/11/09 00:18:50;;;;;;;;;;;-1.00;99.90;;;;;;8360720;28;20014;-64
2021/11/09 00:22:51;;;;;;;;;;;-1.00;99.90;;;;;;8342747;28;19909;-64
2021/11/09 00:26:52;;;;;;;;;;;-0.90;99.90;;;;;;8360825;28;19930;-64
2021/11/09 00:30:53;;;;;;;;;;;-0.90;99.90;;;;;;8360626;28;19912;-64
2021/11/09 00:34:53;;;;;;;;;;;-0.90;99.90;;;;;;8360496;28;20432;-64
2021/11/09 00:38:54;;;;;;;;;;;-0.90;99.90;;;;;;8360110;28;19915;-64
2021/11/09 00:42:55;;;;;;;;;;;-1.00;99.90;;;;;;8360457;28;19958;-64
2021/11/09 00:46:55;;;;;;;;;;;-1.10;99.90;;;;;;8349452;28;20019;-64
2021/11/09 00:50:56;;;;;;;;;;;-1.00;99.90;;;;;;8349070;28;19995;-64
2021/11/09 00:54:56;;;;;;;;;;;-1.10;99.90;;;;;;8349114;28;20270;-64
2021/11/09 00:58:57;;;;;;;;;;;-1.10;99.90;;;;;;8366436;28;19913;-64
2021/11/09 01:02:58;;;;;;;;;;;-1.10;99.90;;;;;;8348828;28;20652;-64
2021/11/09 01:06:59;;;;;;;;;;;-1.00;99.90;;;;;;8366541;28;19905;-64
2021/11/09 01:10:59;;;;;;;;;;;-1.00;99.90;;;;;;8366868;28;19905;-64
2021/11/09 01:15:00;;;;;;;;;;;-1.00;99.90;;;;;;8348499;28;19954;-65
2021/11/09 01:19:04;;;;;;;;;;;-1.10;99.90;;;;;;8348188;28;19916;-64
2021/11/09 01:23:05;;;;;;;;;;;-1.20;99.90;;;;;;8366108;28;20351;-65
2021/11/09 01:27:06;;;;;;;;;;;-1.20;99.90;;;;;;8348146;28;19915;-65
2021/11/09 01:31:07;;;;;;;;;;;-1.40;99.90;;;;;;8366042;28;19915;-64
2021/11/09 01:35:07;;;;;;;;;;;-1.20;99.90;;;;;;8347542;28;19995;-65
2021/11/09 01:39:08;;;;;;;;;;;-1.10;99.90;;;;;;8365455;28;19909;-65
2021/11/09 01:43:09;;;;;;;;;;;-1.40;99.90;;;;;;8365673;28;19966;-65
2021/11/09 01:47:10;;;;;;;;;;;-1.50;99.90;;;;;;8365360;28;19905;-65
2021/11/09 01:51:12;;;;;;;;;;;-1.40;99.90;;;;;;8347508;28;19974;-64
2021/11/09 01:55:14;;;;;;;;;;;-1.50;99.90;;;;;;8364100;28;19975;-65
2021/11/09 01:59:15;;;;;;;;;;;-1.50;99.90;;;;;;8364619;28;19940;-65
2021/11/09 02:03:16;;;;;;;;;;;-1.60;99.90;;;;;;8364565;28;19916;-65
2021/11/09 02:07:16;;;;;;;;;;;-1.60;99.90;;;;;;8364891;28;19908;-65
2021/11/09 02:11:17;;;;;;;;;;;-1.40;99.90;;;;;;8347446;28;20400;-65
2021/11/09 02:15:18;;;;;;;;;;;-1.70;99.90;;;;;;8346418;28;20023;-65
2021/11/09 02:19:19;;;;;;;;;;;-1.80;99.90;;;;;;8346223;28;19912;-65
2021/11/09 02:23:19;;;;;;;;;;;-1.90;99.90;;;;;;8364297;28;20280;-65
2021/11/09 02:27:20;;;;;;;;;;;-1.80;99.90;;;;;;8364211;28;20323;-66
2021/11/09 02:31:20;;;;;;;;;;;-1.60;99.90;;;;;;8346277;28;19927;-65
2021/11/09 02:35:22;;;;;;;;;;;-1.60;99.90;;;;;;8345971;28;19904;-65
2021/11/09 02:39:23;;;;;;;;;;;-1.50;99.90;;;;;;8363589;28;19916;-65
2021/11/09 02:43:24;;;;;;;;;;;-1.70;99.90;;;;;;8363650;28;19905;-65
2021/11/09 02:47:28;;;;;;;;;;;-1.60;99.90;;;;;;8345793;28;20395;-65
2021/11/09 02:55:46;;;;;;;;;;;-1.80;99.90;;;;;;8363467;28;19905;-65
2021/11/09 03:00:18;;;;;;;;;;;-1.80;99.90;;;;;;8362578;28;19912;-65
2021/11/09 03:08:36;;;;;;;;;;;-1.70;99.90;;;;;;8363019;28;19904;-65
2021/11/09 03:12:39;;;;;;;;;;;-1.90;99.90;;;;;;8362748;28;19917;-66
2021/11/09 03:16:41;;;;;;;;;;;-1.80;99.90;;;;;;8362835;28;19912;-65
2021/11/09 03:20:53;;;;;;;;;;;-1.60;99.90;;;;;;8362296;28;19908;-66
2021/11/09 03:46:31;;;;;;;;;;;-1.50;99.90;;;;;;8362132;28;20280;-65
2021/11/09 03:50:32;;;;;;;;;;;-1.50;99.90;;;;;;8361174;28;19959;-65
2021/11/09 03:54:32;;;;;;;;;;;-1.40;99.90;;;;;;8336380;28;20369;-65
2021/11/09 03:58:40;;;;;;;;;;;-1.30;99.90;;;;;;8341911;28;19919;-65
2021/11/09 04:06:50;;;;;;;;;;;-1.50;99.90;;;;;;8360534;28;19908;-65
2021/11/09 04:11:03;;;;;;;;;;;-1.70;99.90;;;;;;8358353;28;20007;-65
2021/11/09 04:27:37;;;;;;;;;;;-1.80;99.90;;;;;;8337437;28;20364;-65
2021/11/09 05:01:48;;;;;;;;;;;-1.40;99.90;;;;;;8360584;28;19935;-66
2021/11/09 05:10:12;;;;;;;;;;;-1.50;99.90;;;;;;8360157;28;19927;-66
2021/11/09 05:14:13;;;;;;;;;;;-1.50;99.90;;;;;;8359936;28;20364;-65
2021/11/09 05:18:14;;;;;;;;;;;-1.50;99.90;;;;;;8341201;28;20391;-65
2021/11/09 05:22:14;;;;;;;;;;;-1.40;99.90;;;;;;8341910;28;19967;-65
2021/11/09 05:26:15;;;;;;;;;;;-1.30;99.90;;;;;;8359831;28;20007;-65
2021/11/09 05:30:16;;;;;;;;;;;-1.30;99.90;;;;;;8342694;28;20765;-66
2021/11/09 05:34:16;;;;;;;;;;;-1.10;99.90;;;;;;8365443;28;19948;-66
2021/11/09 05:38:24;;;;;;;;;;;-1.00;99.90;;;;;;8365702;28;19916;-66
2021/11/09 05:42:24;;;;;;;;;;;-0.90;99.90;;;;;;8364188;28;19909;-66
2021/11/09 05:46:25;;;;;;;;;;;-1.00;99.90;;;;;;8365067;28;19915;-67
2021/11/09 05:50:26;;;;;;;;;;;-1.10;99.90;;;;;;8364332;28;19935;-67
2021/11/09 05:54:26;;;;;;;;;;;-1.00;99.90;;;;;;8363370;28;19931;-67
2021/11/09 05:58:27;;;;;;;;;;;-0.90;99.90;;;;;;8363569;28;20392;-66
2021/11/09 06:02:28;;;;;;;;;;;-0.90;99.90;;;;;;8346513;28;19913;-67
2021/11/09 06:06:28;;;;;;;;;;;-1.00;99.90;;;;;;8363920;28;19905;-67
2021/11/09 06:10:29;;;;;;;;;;;-0.90;99.90;;;;;;8364295;28;19916;-67
2021/11/09 06:14:29;;;;;;;;;;;-0.90;99.90;;;;;;8364117;28;19909;-66
2021/11/09 06:18:30;;;;;;;;;;;-0.90;99.90;;;;;;8364269;28;20296;-67
2021/11/09 06:22:31;;;;;;;;;;;-0.90;99.90;;;;;;8346489;28;19995;-67
2021/11/09 06:26:31;;;;;;;;;;;-0.70;99.90;;;;;;8364349;28;19912;-66
2021/11/09 06:30:32;;;;;;;;;;;-0.70;99.90;;;;;;8363966;28;19908;-67
2021/11/09 06:34:33;;;;;;;;;;;-0.60;99.90;;;;;;8363914;28;19912;-67
2021/11/09 06:38:33;;;;;;;;;;;-0.50;99.90;;;;;;8346173;28;19970;-67
2021/11/09 06:42:34;;;;;;;;;;;-0.30;99.90;;;;;;8363114;28;19940;-67
2021/11/09 06:46:35;;;;;;;;;;;-0.30;99.90;;;;;;8345972;28;19904;-67
2021/11/09 06:50:35;;;;;;;;;;;0.10;99.90;;;;;;8363205;28;19905;-66
2021/11/09 06:54:36;;;;;;;;;;;0.20;99.90;;;;;;8363295;28;19995;-67
2021/11/09 06:58:37;;;;;;;;;;;0.20;99.90;;;;;;8362890;28;20372;-66
2021/11/09 07:02:37;;;;;;;;;;;0.20;99.90;;;;;;8363158;28;19962;-67
2021/11/09 07:06:38;;;;;;;;;;;0.40;99.90;;;;;;8345364;28;19966;-67
2021/11/09 07:10:38;;;;;;;;;;;0.50;99.90;;;;;;8362326;28;20369;-66
2021/11/09 07:14:39;;;;;;;;;;;0.60;99.90;;;;;;8362337;28;20024;-66
2021/11/09 07:18:40;;;;;;;;;;;0.80;99.90;;;;;;8362412;28;19983;-66
2021/11/09 07:22:40;;;;;;;;;;;1.00;99.90;;;;;;8362609;28;19905;-67
2021/11/09 07:26:41;;;;;;;;;;;1.00;99.90;;;;;;8362359;28;19909;-67
2021/11/09 07:30:43;;;;;;;;;;;1.20;99.90;;;;;;8344213;28;20288;-66
2021/11/09 07:34:44;;;;;;;;;;;1.40;99.90;;;;;;8344087;28;20361;-67
2021/11/09 07:38:46;;;;;;;;;;;1.60;99.90;;;;;;8362143;28;19927;-66
2021/11/09 07:42:49;;;;;;;;;;;1.80;99.90;;;;;;8361875;28;19909;-67
2021/11/09 07:46:50;;;;;;;;;;;2.10;99.90;;;;;;8361943;28;19942;-67
2021/11/09 07:50:50;;;;;;;;;;;2.30;99.90;;;;;;8361347;28;19905;-66
2021/11/09 07:54:57;;;;;;;;;;;2.30;99.90;;;;;;8360362;28;20266;-66
2021/11/09 07:59:46;;;;;;;;;;;2.30;99.90;;;;;;8361156;28;20333;-66
2021/11/09 08:03:33;;;;;;;;;;;2.30;99.90;;;;;;8355402;28;19962;-66
2021/11/09 08:07:37;;;;;;;;;;;2.30;99.90;;;;;;8360663;28;19984;-66
2021/11/09 08:11:41;;;;;;;;;;;2.40;99.90;;;;;;8360931;28;19911;-66
2021/11/09 08:15:42;;;;;;;;;;;2.60;99.90;;;;;;8343160;28;19912;-66
2021/11/09 08:19:43;;;;;;;;;;;2.60;99.90;;;;;;8360643;28;19915;-66
2021/11/09 08:23:48;;;;;;;;;;;2.80;99.90;;;;;;8360596;28;19906;-66
2021/11/09 08:27:49;;;;;;;;;;;3.10;99.90;;;;;;8360681;28;20285;-66
2021/11/09 08:31:49;;;;;;;;;;;3.40;99.90;;;;;;8342806;28;19905;-66
2021/11/09 08:35:51;;;;;;;;;;;3.50;99.90;;;;;;8360477;28;19904;-66
2021/11/09 08:39:52;;;;;;;;;;;3.70;99.90;;;;;;8360204;28;19913;-66
2021/11/09 08:44:05;;;;;;;;;;;3.90;99.90;;;;;;8360339;28;19986;-66
2021/11/09 08:48:16;;;;;;;;;;;4.10;99.90;;;;;;8360462;28;20461;-66
2021/11/09 08:52:20;;;;;;;;;;;4.20;99.90;;;;;;8360228;28;19916;-66
2021/11/09 09:04:59;;;;;;;;;;;4.70;99.90;;;;;;8361734;28;19967;-65
2021/11/09 09:09:00;;;;;;;;;;;4.90;99.90;;;;;;8366020;28;20277;-65
2021/11/09 09:13:00;;;;;;;;;;;5.00;99.90;;;;;;8366408;28;20432;-65
2021/11/09 09:17:02;;;;;;;;;;;5.00;99.90;;;;;;8366537;28;20443;-65
2021/11/09 09:58:58;;;;;;;;;;;6.90;99.90;;;;;;8365215;28;19909;-65
2021/11/09 10:02:59;;;;;;;;;;;6.90;99.90;;;;;;8364984;28;20324;-65
2021/11/09 10:07:00;;;;;;;;;;;7.20;99.90;;;;;;8346515;28;19956;-66
2021/11/09 10:11:00;;;;;;;;;;;7.50;99.90;;;;;;8346919;28;19947;-65
2021/11/09 10:15:04;;;;;;;;;;;8.00;99.90;;;;;;8364512;28;19909;-66
2021/11/09 10:19:05;;;;;;;;;;;8.60;99.90;;;;;;8363251;28;19909;-66
2021/11/09 10:23:14;;;;;;;;;;;11.00;99.90;;;;;;8364275;28;20403;-66
2021/11/09 10:27:15;;;;;;;;;;;14.10;99.90;;;;;;8346609;28;19987;-66
2021/11/09 10:31:16;;;;;;;;;;;15.20;99.90;;;;;;8346228;28;20289;-66
2021/11/09 10:35:17;;;;;;;;;;;15.80;99.90;;;;;;8363913;28;19915;-66
2021/11/09 10:39:21;;;;;;;;;;;17.40;94.40;;;;;;8363545;28;20376;-65
2021/11/09 10:43:22;;;;;;;;;;;15.60;94.40;;;;;;8345935;28;20469;-66
2021/11/09 10:47:33;;;;;;;;;;;14.40;97.00;;;;;;8363839;28;19905;-66
2021/11/09 10:51:53;;;;;;;;;;;15.00;96.20;;;;;;8345534;28;19908;-66
2021/11/09 11:04:11;;;;;;;;;;;16.70;90.70;;;;;;8362901;28;20376;-65
2021/11/09 11:08:12;;;;;;;;;;;17.80;83.60;;;;;;8362546;28;19956;-65
2021/11/09 11:12:14;;;;;;;;;;;16.70;88.70;;;;;;8362537;28;19909;-65
2021/11/09 11:16:17;;;;;;;;;;;16.90;85.30;;;;;;8344258;28;19905;-65
2021/11/09 11:20:17;;;;;;;;;;;16.60;87.30;;;;;;8361221;28;20436;-65
2021/11/09 11:24:18;;;;;;;;;;;16.50;87.10;;;;;;8344542;28;19915;-64
2021/11/09 11:28:19;;;;;;;;;;;15.60;88.50;;;;;;8362097;28;19911;-65
2021/11/09 11:32:21;;;;;;;;;;;16.70;84.80;;;;;;8362125;28;19992;-65
2021/11/09 11:36:22;;;;;;;;;;;15.90;88.10;;;;;;8362251;28;19932;-65
2021/11/09 11:40:22;;;;;;;;;;;15.90;91.30;;;;;;8361799;28;19909;-66
2021/11/09 11:44:24;;;;;;;;;;;19.20;79.70;;;;;;8361914;28;19909;-65
2021/11/09 11:48:24;;;;;;;;;;;21.20;68.90;;;;;;8361553;28;20003;-66
2021/11/09 11:52:28;;;;;;;;;;;22.50;62.90;;;;;;8343872;28;19911;-66
2021/11/09 11:56:38;;;;;;;;;;;23.00;56.10;;;;;;8361638;28;20360;-65
2021/11/09 12:00:43;;;;;;;;;;;22.90;56.80;;;;;;8361253;28;19916;-65
2021/11/09 12:04:47;;;;;;;;;;;22.40;56.30;;;;;;8343247;28;20124;-65
2021/11/09 12:08:49;;;;;;;;;;;20.40;58.50;;;;;;8360821;28;20369;-65
2021/11/09 12:13:01;;;;;;;;;;;21.00;60.70;;;;;;8360960;28;19911;-66
2021/11/09 12:17:05;;;;;;;;;;;21.90;57.80;;;;;;8360926;28;19912;-65
2021/11/09 12:21:14;;;;;;;;;;;22.50;53.70;;;;;;8360741;28;19944;-66
2021/11/09 12:25:33;;;;;;;;;;;20.30;59.70;;;;;;8360689;28;20377;-65
2021/11/09 12:29:41;;;;;;;;;;;21.00;59.00;;;;;;8360540;28;19905;-65
2021/11/09 12:33:46;;;;;;;;;;;20.70;58.20;;;;;;8360654;28;20011;-65
2021/11/09 12:38:04;;;;;;;;;;;19.30;61.60;;;;;;8360612;28;20495;-65
2021/11/09 12:42:04;;;;;;;;;;;17.10;65.40;;;;;;8359956;28;19912;-65
2021/11/09 12:46:08;;;;;;;;;;;15.20;77.10;;;;;;8360451;28;19908;-65
2021/11/09 12:50:13;;;;;;;;;;;17.20;71.70;;;;;;8360194;28;19950;-65
2021/11/09 12:54:15;;;;;;;;;;;20.00;63.70;;;;;;8342245;28;20049;-65
2021/11/09 12:58:17;;;;;;;;;;;21.60;58.60;;;;;;8342187;28;20345;-65
2021/11/09 13:02:26;;;;;;;;;;;17.90;64.10;;;;;;8359861;28;19931;-65
2021/11/09 13:06:51;;;;;;;;;;;16.70;69.80;;;;;;8342338;28;19909;-65
2021/11/09 13:10:53;;;;;;;;;;;20.50;61.70;;;;;;8342110;28;19992;-65
2021/11/09 13:14:53;;;;;;;;;;;20.40;61.90;;;;;;8359434;28;19905;-66
2021/11/09 13:19:00;;;;;;;;;;;21.70;58.10;;;;;;8359591;28;19908;-66
2021/11/09 13:23:03;;;;;;;;;;;22.00;56.50;;;;;;8359944;28;19955;-66
2021/11/09 13:27:05;;;;;;;;;;;22.20;55.20;;;;;;8342236;28;19909;-65
2021/11/09 13:31:09;;;;;;;;;;;20.70;55.20;;;;;;8359546;28;19958;-65
2021/11/09 13:35:13;;;;;;;;;;;16.80;68.10;;;;;;8359468;28;20006;-65
2021/11/09 13:39:18;;;;;;;;;;;17.30;69.90;;;;;;8359397;28;20335;-65
2021/11/09 13:43:21;;;;;;;;;;;16.20;69.00;;;;;;8359509;28;19936;-65
2021/11/09 13:47:28;;;;;;;;;;;13.70;78.70;;;;;;8359465;28;19904;-65
2021/11/09 13:51:30;;;;;;;;;;;12.30;85.00;;;;;;8360078;28;19966;-65
2021/11/09 13:55:34;;;;;;;;;;;10.80;90.90;;;;;;8365106;28;20435;-65
2021/11/09 13:59:36;;;;;;;;;;;10.90;92.10;;;;;;8364767;28;19908;-65
2021/11/09 14:08:32;;;;;;;;;;;10.60;94.60;;;;;;8365508;28;19967;-65
2021/11/09 14:16:54;;;;;;;;;;;10.00;96.40;;;;;;8364391;28;19905;-65
2021/11/09 14:21:02;;;;;;;;;;;9.60;99.90;;;;;;8364367;28;20007;-65
2021/11/09 14:25:04;;;;;;;;;;;9.50;99.90;;;;;;8364316;28;19912;-65
2021/11/09 14:29:14;;;;;;;;;;;9.50;99.90;;;;;;8364090;28;19975;-65
2021/11/09 14:33:20;;;;;;;;;;;9.30;99.90;;;;;;8346371;28;20056;-65
2021/11/09 14:37:26;;;;;;;;;;;9.10;99.90;;;;;;8364085;28;20003;-65
2021/11/09 14:41:31;;;;;;;;;;;8.90;99.90;;;;;;8362731;28;19923;-65
2021/11/09 14:49:43;;;;;;;;;;;8.70;99.90;;;;;;8362135;28;19944;-65
2021/11/09 14:54:33;;;;;;;;;;;8.50;99.90;;;;;;8344753;28;20339;-65
2021/11/09 14:58:21;;;;;;;;;;;8.30;99.90;;;;;;8345630;28;20296;-65
2021/11/09 15:02:24;;;;;;;;;;;8.30;99.90;;;;;;8344733;28;19909;-66
2021/11/09 15:06:36;;;;;;;;;;;8.10;99.90;;;;;;8362122;28;20269;-65
2021/11/09 15:11:15;;;;;;;;;;;7.90;99.90;;;;;;8358089;28;19909;-65
2021/11/09 15:28:12;;;;;;;;;;;7.60;99.90;;;;;;8364655;28;19912;-64
2021/11/09 15:32:23;;;;;;;;;;;7.30;99.90;;;;;;8343400;28;19908;-65
2021/11/09 15:36:41;;;;;;;;;;;7.00;99.90;;;;;;8344309;28;19996;-65
2021/11/09 15:40:42;;;;;;;;;;;6.80;99.90;;;;;;8361954;28;19931;-64
2021/11/09 15:44:43;;;;;;;;;;;6.60;99.90;;;;;;8361607;28;19911;-64
2021/11/09 15:48:43;;;;;;;;;;;6.50;99.90;;;;;;8361500;28;20097;-64
2021/11/09 15:52:44;;;;;;;;;;;6.70;99.90;;;;;;8361885;28;20015;-64
2021/11/09 15:56:45;;;;;;;;;;;6.90;99.90;;;;;;8343524;28;20360;-64
2021/11/09 16:00:47;;;;;;;;;;;6.60;99.90;;;;;;8343311;28;19944;-64
2021/11/09 16:04:47;;;;;;;;;;;6.30;99.90;;;;;;8343306;28;19938;-64
2021/11/09 16:08:50;;;;;;;;;;;6.10;99.90;;;;;;8360995;28;19912;-65
2021/11/09 16:12:50;;;;;;;;;;;5.90;99.90;;;;;;8360943;28;19991;-64
2021/11/09 16:16:51;;;;;;;;;;;5.70;99.90;;;;;;8342426;28;19915;-64
2021/11/09 16:20:51;;;;;;;;;;;5.70;99.90;;;;;;8360969;28;19954;-64
2021/11/09 16:24:52;;;;;;;;;;;5.50;99.90;;;;;;8360591;28;19909;-64
2021/11/09 16:28:52;;;;;;;;;;;5.40;99.90;;;;;;8360469;28;19909;-64
2021/11/09 16:32:58;;;;;;;;;;;5.30;99.90;;;;;;8343047;28;19909;-64
2021/11/09 16:36:59;;;;;;;;;;;5.30;99.90;;;;;;8361055;28;19904;-65
2021/11/09 16:41:00;;;;;;;;;;;5.20;99.90;;;;;;8358203;28;19920;-64
2021/11/09 16:45:03;;;;;;;;;;;5.10;99.90;;;;;;8324090;28;19909;-64
2021/11/09 16:53:07;;;;;;;;;;;5.10;99.90;;;;;;8339458;28;20382;-64
2021/11/09 16:57:31;;;;;;;;;;;5.00;99.90;;;;;;8331400;28;20003;-64
2021/11/09 17:06:11;;;;;;;;;;;4.80;99.90;;;;;;8356569;28;19996;-64
2021/11/09 18:02:00;;;;;;;;;;;4.60;99.90;;;;;;8360689;28;19916;-64
2021/11/09 18:22:59;;;;;;;;;;;3.80;99.90;;;;;;8365180;28;19912;-64
2021/11/09 18:27:00;;;;;;;;;;;3.70;99.90;;;;;;8364403;28;19961;-64
2021/11/09 18:31:01;;;;;;;;;;;3.60;99.90;;;;;;8364346;28;19905;-64
2021/11/09 18:35:01;;;;;;;;;;;3.60;99.90;;;;;;8364225;28;20372;-64
2021/11/09 18:39:04;;;;;;;;;;;3.60;99.90;;;;;;8362865;28;19912;-64
2021/11/09 18:43:06;;;;;;;;;;;3.60;99.90;;;;;;8363923;28;19951;-65
2021/11/09 18:47:07;;;;;;;;;;;3.60;99.90;;;;;;8363775;28;19911;-64
2021/11/09 18:51:08;;;;;;;;;;;3.60;99.90;;;;;;8363617;28;20277;-64
2021/11/09 18:55:09;;;;;;;;;;;3.50;99.90;;;;;;8363476;28;19912;-64
2021/11/09 18:59:10;;;;;;;;;;;3.40;99.90;;;;;;8362603;28;19930;-64
2021/11/09 19:03:10;;;;;;;;;;;3.40;99.90;;;;;;8362895;28;19912;-64
2021/11/09 19:07:11;;;;;;;;;;;3.40;99.90;;;;;;8363175;28;19995;-64
2021/11/09 19:11:11;;;;;;;;;;;3.10;99.90;;;;;;8345117;28;20258;-64
2021/11/09 19:15:12;;;;;;;;;;;3.00;99.90;;;;;;8344981;28;20404;-65
2021/11/09 19:19:13;;;;;;;;;;;3.00;99.90;;;;;;8362554;28;19961;-64
2021/11/09 19:23:15;;;;;;;;;;;3.10;99.90;;;;;;8362872;28;19904;-64
2021/11/09 19:27:15;;;;;;;;;;;2.80;99.90;;;;;;8362493;28;20337;-64
2021/11/09 19:31:16;;;;;;;;;;;2.70;99.90;;;;;;8362389;28;19909;-64
2021/11/09 19:35:17;;;;;;;;;;;2.60;99.90;;;;;;8344341;28;20007;-64
2021/11/09 19:39:17;;;;;;;;;;;2.90;99.90;;;;;;8361951;28;19931;-64
2021/11/09 19:43:18;;;;;;;;;;;2.50;99.90;;;;;;8362049;28;20450;-64
2021/11/09 19:47:19;;;;;;;;;;;2.50;99.90;;;;;;8361851;28;19905;-64
2021/11/09 19:51:19;;;;;;;;;;;2.50;99.90;;;;;;8361847;28;19904;-64
2021/11/09 19:55:21;;;;;;;;;;;2.20;99.90;;;;;;8361793;28;19905;-65
2021/11/09 19:59:21;;;;;;;;;;;2.00;99.90;;;;;;8342827;28;20004;-64
2021/11/09 20:03:25;;;;;;;;;;;2.10;99.90;;;;;;8361334;28;19913;-65
2021/11/09 20:07:26;;;;;;;;;;;2.10;99.90;;;;;;8356261;28;19919;-65
2021/11/09 20:11:28;;;;;;;;;;;1.90;99.90;;;;;;8357933;28;19944;-65
2021/11/09 20:15:31;;;;;;;;;;;1.80;99.90;;;;;;8357857;28;19948;-65
2021/11/09 20:19:32;;;;;;;;;;;1.70;99.90;;;;;;8357497;28;19913;-65
2021/11/09 20:23:32;;;;;;;;;;;1.70;99.90;;;;;;8357216;28;19955;-64
2021/11/09 20:27:35;;;;;;;;;;;1.90;99.90;;;;;;8340087;28;19948;-65
2021/11/09 20:31:36;;;;;;;;;;;2.40;99.90;;;;;;8357551;28;19909;-65
2021/11/09 20:35:36;;;;;;;;;;;2.20;99.90;;;;;;8338432;28;19908;-65
2021/11/09 20:39:37;;;;;;;;;;;1.80;99.90;;;;;;8356946;28;19908;-65
2021/11/09 20:43:38;;;;;;;;;;;1.40;99.90;;;;;;8338648;28;19916;-65
2021/11/09 20:47:39;;;;;;;;;;;1.50;99.90;;;;;;8357210;28;20637;-65
2021/11/09 20:51:39;;;;;;;;;;;1.20;99.90;;;;;;8355717;28;20001;-65
2021/11/09 20:55:41;;;;;;;;;;;1.20;99.90;;;;;;8357015;28;19911;-65
2021/11/09 20:59:42;;;;;;;;;;;1.10;99.90;;;;;;8355845;28;19939;-65
2021/11/09 21:03:42;;;;;;;;;;;1.10;99.90;;;;;;8362705;28;19922;-65
2021/11/09 21:07:43;;;;;;;;;;;0.90;99.90;;;;;;8362542;28;19920;-65
2021/11/09 21:11:44;;;;;;;;;;;1.10;99.90;;;;;;8363027;28;19908;-65
2021/11/09 21:20:05;;;;;;;;;;;1.30;99.90;;;;;;8361906;28;20490;-64
2021/11/09 21:24:05;;;;;;;;;;;1.30;99.90;;;;;;8343714;28;19948;-65
2021/11/09 21:28:07;;;;;;;;;;;1.00;99.90;;;;;;8365555;28;19909;-65
2021/11/09 21:32:29;;;;;;;;;;;0.90;99.90;;;;;;8363459;28;20383;-65
2021/11/09 21:36:30;;;;;;;;;;;1.00;99.90;;;;;;8362446;28;19915;-65
2021/11/09 21:40:32;;;;;;;;;;;0.90;99.90;;;;;;8364839;28;20292;-65
2021/11/09 21:44:33;;;;;;;;;;;0.80;99.90;;;;;;8362338;28;19917;-66
2021/11/09 21:48:34;;;;;;;;;;;0.70;99.90;;;;;;8346758;28;19905;-65
2021/11/09 21:52:34;;;;;;;;;;;0.60;99.90;;;;;;8346681;28;19996;-64
2021/11/09 21:56:35;;;;;;;;;;;0.60;99.90;;;;;;8364076;28;19940;-65
2021/11/09 22:00:35;;;;;;;;;;;0.70;99.90;;;;;;8364717;28;19913;-64
2021/11/09 22:04:36;;;;;;;;;;;0.90;99.90;;;;;;8365007;28;19991;-64
2021/11/09 22:08:37;;;;;;;;;;;0.70;99.90;;;;;;8365029;28;19912;-65
2021/11/09 22:12:40;;;;;;;;;;;0.60;99.90;;;;;;8379104;28;20371;-65
2021/11/09 22:16:42;;;;;;;;;;;0.60;99.90;;;;;;8365004;28;19955;-65
2021/11/09 22:20:42;;;;;;;;;;;0.50;99.90;;;;;;8364535;28;19909;-64
2021/11/09 22:24:43;;;;;;;;;;;0.50;99.90;;;;;;8364511;28;19987;-64
2021/11/09 22:28:43;;;;;;;;;;;0.40;99.90;;;;;;8364295;28;19904;-65
2021/11/09 22:32:44;;;;;;;;;;;0.60;99.90;;;;;;8364218;28;19928;-64
2021/11/09 22:36:44;;;;;;;;;;;0.40;99.90;;;;;;8364187;28;20042;-65
2021/11/09 22:40:45;;;;;;;;;;;0.30;99.90;;;;;;8345983;28;19909;-64
2021/11/09 22:44:46;;;;;;;;;;;0.40;99.90;;;;;;8363899;28;19911;-65
2021/11/09 22:48:47;;;;;;;;;;;0.40;99.90;;;;;;8363661;28;19911;-65
2021/11/09 22:52:49;;;;;;;;;;;0.10;99.90;;;;;;8363670;28;19916;-65
2021/11/09 22:56:49;;;;;;;;;;;0.10;99.90;;;;;;8345694;28;20438;-65
2021/11/09 23:00:50;;;;;;;;;;;0.00;99.90;;;;;;8362754;28;19912;-65
2021/11/09 23:04:51;;;;;;;;;;;0.00;99.90;;;;;;8345082;28;20011;-65
2021/11/09 23:08:51;;;;;;;;;;;0.10;99.90;;;;;;8363035;28;19912;-65
2021/11/09 23:12:52;;;;;;;;;;;0.30;99.90;;;;;;8363048;28;20369;-65
2021/11/09 23:16:52;;;;;;;;;;;0.10;99.90;;;;;;8362864;28;20431;-65
2021/11/09 23:20:52;;;;;;;;;;;0.20;99.90;;;;;;8362614;28;19930;-65
2021/11/09 23:24:53;;;;;;;;;;;0.20;99.90;;;;;;8344456;28;20278;-64
2021/11/09 23:28:53;;;;;;;;;;;0.30;99.90;;;;;;8362424;28;19904;-65
2021/11/09 23:32:55;;;;;;;;;;;0.00;99.90;;;;;;8362375;28;20380;-65
2021/11/09 23:36:56;;;;;;;;;;;-0.10;99.90;;;;;;8344367;28;19909;-65
2021/11/09 23:40:56;;;;;;;;;;;0.00;99.90;;;;;;8362090;28;20003;-65
2021/11/09 23:44:57;;;;;;;;;;;0.20;99.90;;;;;;8361930;28;19940;-65
2021/11/09 23:48:57;;;;;;;;;;;0.20;99.90;;;;;;8343741;28;19909;-67
2021/11/09 23:52:58;;;;;;;;;;;0.10;99.90;;;;;;8361815;28;19908;-65
2021/11/09 23:56:59;;;;;;;;;;;0.30;99.90;;;;;;8344063;28;19909;-65
